sensor_id;sensor_type;location;lat;lon;timestamp;P1;durP1;ratioP1;P2;durP2;ratioP2
24873;SDS011;12945;42.648;23.370;2023-04-06T00:01:36;13.45;;;8.80;;
24873;SDS011;12945;42.648;23.370;2023-04-06T00:04:01;14.38;;;9.40;;
24873;SDS011;12945;42.648;23.370;2023-04-06T00:06:27;15.85;;;9.05;;
24873;SDS011;12945;42.648;23.370;2023-04-06T00:08:52;15.35;;;9.07;;
24873;SDS011;12945;42.648;23.370;2023-04-06T00:11:17;19.08;;;10.55;;
24873;SDS011;12945;42.648;23.370;2023-04-06T00:13:43;14.23;;;9.57;;
24873;SDS011;12945;42.648;23.370;2023-04-06T00:16:08;13.38;;;9.15;;
24873;SDS011;12945;42.648;23.370;2023-04-06T00:18:33;16.63;;;10.15;;
24873;SDS011;12945;42.648;23.370;2023-04-06T00:20:59;16.65;;;9.77;;
24873;SDS011;12945;42.648;23.370;2023-04-06T00:23:24;18.23;;;10.23;;
24873;SDS011;12945;42.648;23.370;2023-04-06T00:25:50;21.67;;;10.70;;
24873;SDS011;12945;42.648;23.370;2023-04-06T00:28:15;22.23;;;10.00;;
24873;SDS011;12945;42.648;23.370;2023-04-06T00:30:41;18.00;;;9.88;;
24873;SDS011;12945;42.648;23.370;2023-04-06T00:33:06;17.35;;;9.82;;
24873;SDS011;12945;42.648;23.370;2023-04-06T00:35:31;18.02;;;9.85;;
24873;SDS011;12945;42.648;23.370;2023-04-06T00:37:57;15.25;;;9.60;;
24873;SDS011;12945;42.648;23.370;2023-04-06T00:40:22;15.05;;;9.05;;
24873;SDS011;12945;42.648;23.370;2023-04-06T00:42:47;14.00;;;8.57;;
24873;SDS011;12945;42.648;23.370;2023-04-06T00:45:13;16.17;;;9.85;;
24873;SDS011;12945;42.648;23.370;2023-04-06T00:47:38;16.80;;;9.35;;
24873;SDS011;12945;42.648;23.370;2023-04-06T00:50:04;17.05;;;10.38;;
24873;SDS011;12945;42.648;23.370;2023-04-06T00:52:29;14.82;;;9.80;;
24873;SDS011;12945;42.648;23.370;2023-04-06T00:54:55;16.20;;;10.00;;
24873;SDS011;12945;42.648;23.370;2023-04-06T00:57:20;16.42;;;9.77;;
24873;SDS011;12945;42.648;23.370;2023-04-06T00:59:46;16.27;;;9.82;;
24873;SDS011;12945;42.648;23.370;2023-04-06T01:02:11;16.25;;;10.73;;
24873;SDS011;12945;42.648;23.370;2023-04-06T01:04:36;16.00;;;9.93;;
24873;SDS011;12945;42.648;23.370;2023-04-06T01:07:02;17.95;;;10.07;;
24873;SDS011;12945;42.648;23.370;2023-04-06T01:09:28;16.35;;;9.88;;
24873;SDS011;12945;42.648;23.370;2023-04-06T01:11:54;15.15;;;10.18;;
24873;SDS011;12945;42.648;23.370;2023-04-06T01:14:21;13.65;;;9.10;;
24873;SDS011;12945;42.648;23.370;2023-04-06T01:16:46;14.65;;;8.82;;
24873;SDS011;12945;42.648;23.370;2023-04-06T01:19:12;14.38;;;9.38;;
24873;SDS011;12945;42.648;23.370;2023-04-06T01:21:38;13.25;;;8.68;;
24873;SDS011;12945;42.648;23.370;2023-04-06T01:24:03;13.48;;;8.63;;
24873;SDS011;12945;42.648;23.370;2023-04-06T01:26:29;16.52;;;8.98;;
24873;SDS011;12945;42.648;23.370;2023-04-06T01:28:55;15.63;;;9.32;;
24873;SDS011;12945;42.648;23.370;2023-04-06T01:31:20;16.15;;;9.27;;
24873;SDS011;12945;42.648;23.370;2023-04-06T01:33:45;14.15;;;8.73;;
24873;SDS011;12945;42.648;23.370;2023-04-06T01:36:11;18.98;;;9.18;;
24873;SDS011;12945;42.648;23.370;2023-04-06T01:38:37;13.82;;;9.38;;
24873;SDS011;12945;42.648;23.370;2023-04-06T01:41:02;13.77;;;9.50;;
24873;SDS011;12945;42.648;23.370;2023-04-06T01:43:27;15.02;;;9.32;;
24873;SDS011;12945;42.648;23.370;2023-04-06T01:45:52;17.77;;;10.45;;
24873;SDS011;12945;42.648;23.370;2023-04-06T01:48:18;19.17;;;10.25;;
24873;SDS011;12945;42.648;23.370;2023-04-06T01:50:43;17.00;;;10.43;;
24873;SDS011;12945;42.648;23.370;2023-04-06T01:53:08;14.70;;;9.75;;
24873;SDS011;12945;42.648;23.370;2023-04-06T01:55:34;15.48;;;9.80;;
24873;SDS011;12945;42.648;23.370;2023-04-06T01:57:59;17.05;;;10.60;;
24873;SDS011;12945;42.648;23.370;2023-04-06T02:00:25;13.45;;;9.70;;
24873;SDS011;12945;42.648;23.370;2023-04-06T02:02:50;15.30;;;9.20;;
24873;SDS011;12945;42.648;23.370;2023-04-06T02:05:15;14.90;;;9.65;;
24873;SDS011;12945;42.648;23.370;2023-04-06T02:07:41;16.55;;;9.73;;
24873;SDS011;12945;42.648;23.370;2023-04-06T02:10:10;15.35;;;10.13;;
24873;SDS011;12945;42.648;23.370;2023-04-06T02:12:36;16.73;;;9.80;;
24873;SDS011;12945;42.648;23.370;2023-04-06T02:15:01;14.07;;;8.90;;
24873;SDS011;12945;42.648;23.370;2023-04-06T02:17:27;13.27;;;8.10;;
24873;SDS011;12945;42.648;23.370;2023-04-06T02:19:52;14.38;;;8.70;;
24873;SDS011;12945;42.648;23.370;2023-04-06T02:22:17;14.70;;;9.38;;
24873;SDS011;12945;42.648;23.370;2023-04-06T02:24:43;16.63;;;9.30;;
24873;SDS011;12945;42.648;23.370;2023-04-06T02:27:08;16.13;;;9.13;;
24873;SDS011;12945;42.648;23.370;2023-04-06T02:29:33;15.38;;;9.52;;
24873;SDS011;12945;42.648;23.370;2023-04-06T02:31:58;13.80;;;8.93;;
24873;SDS011;12945;42.648;23.370;2023-04-06T02:34:24;14.85;;;9.52;;
24873;SDS011;12945;42.648;23.370;2023-04-06T02:36:50;15.18;;;8.65;;
24873;SDS011;12945;42.648;23.370;2023-04-06T02:39:15;14.25;;;8.90;;
24873;SDS011;12945;42.648;23.370;2023-04-06T02:41:40;14.23;;;9.07;;
24873;SDS011;12945;42.648;23.370;2023-04-06T02:44:07;14.18;;;9.63;;
24873;SDS011;12945;42.648;23.370;2023-04-06T02:46:32;14.68;;;9.88;;
24873;SDS011;12945;42.648;23.370;2023-04-06T02:48:58;17.48;;;10.30;;
24873;SDS011;12945;42.648;23.370;2023-04-06T02:51:25;16.95;;;9.38;;
24873;SDS011;12945;42.648;23.370;2023-04-06T02:53:50;15.45;;;9.57;;
24873;SDS011;12945;42.648;23.370;2023-04-06T02:56:16;16.52;;;10.05;;
24873;SDS011;12945;42.648;23.370;2023-04-06T02:58:41;17.33;;;10.75;;
24873;SDS011;12945;42.648;23.370;2023-04-06T03:01:06;16.00;;;10.18;;
24873;SDS011;12945;42.648;23.370;2023-04-06T03:03:32;15.73;;;9.32;;
24873;SDS011;12945;42.648;23.370;2023-04-06T03:05:57;16.00;;;9.70;;
24873;SDS011;12945;42.648;23.370;2023-04-06T03:08:24;16.42;;;9.75;;
24873;SDS011;12945;42.648;23.370;2023-04-06T03:10:49;13.50;;;9.07;;
24873;SDS011;12945;42.648;23.370;2023-04-06T03:13:16;14.48;;;9.20;;
24873;SDS011;12945;42.648;23.370;2023-04-06T03:15:42;15.93;;;9.30;;
24873;SDS011;12945;42.648;23.370;2023-04-06T03:18:07;16.40;;;9.50;;
24873;SDS011;12945;42.648;23.370;2023-04-06T03:20:32;14.02;;;8.98;;
24873;SDS011;12945;42.648;23.370;2023-04-06T03:22:58;14.25;;;8.65;;
24873;SDS011;12945;42.648;23.370;2023-04-06T03:25:23;15.65;;;8.60;;
24873;SDS011;12945;42.648;23.370;2023-04-06T03:27:48;14.88;;;9.20;;
24873;SDS011;12945;42.648;23.370;2023-04-06T03:30:14;15.05;;;9.75;;
24873;SDS011;12945;42.648;23.370;2023-04-06T03:32:41;20.60;;;10.35;;
24873;SDS011;12945;42.648;23.370;2023-04-06T03:35:07;18.63;;;10.40;;
24873;SDS011;12945;42.648;23.370;2023-04-06T03:37:32;13.15;;;8.73;;
24873;SDS011;12945;42.648;23.370;2023-04-06T03:39:58;15.10;;;8.38;;
24873;SDS011;12945;42.648;23.370;2023-04-06T03:42:23;14.88;;;9.02;;
24873;SDS011;12945;42.648;23.370;2023-04-06T03:44:48;16.88;;;9.75;;
24873;SDS011;12945;42.648;23.370;2023-04-06T03:47:13;17.05;;;9.63;;
24873;SDS011;12945;42.648;23.370;2023-04-06T03:49:39;16.55;;;9.73;;
24873;SDS011;12945;42.648;23.370;2023-04-06T03:52:05;14.27;;;9.52;;
24873;SDS011;12945;42.648;23.370;2023-04-06T03:54:30;12.77;;;8.48;;
24873;SDS011;12945;42.648;23.370;2023-04-06T03:56:55;16.67;;;9.30;;
24873;SDS011;12945;42.648;23.370;2023-04-06T03:59:21;15.30;;;8.65;;
24873;SDS011;12945;42.648;23.370;2023-04-06T04:01:46;16.85;;;8.50;;
24873;SDS011;12945;42.648;23.370;2023-04-06T04:04:12;15.23;;;9.10;;
24873;SDS011;12945;42.648;23.370;2023-04-06T04:06:37;12.82;;;7.72;;
24873;SDS011;12945;42.648;23.370;2023-04-06T04:09:02;12.63;;;8.18;;
24873;SDS011;12945;42.648;23.370;2023-04-06T04:11:28;16.90;;;8.20;;
24873;SDS011;12945;42.648;23.370;2023-04-06T04:13:53;15.93;;;8.80;;
24873;SDS011;12945;42.648;23.370;2023-04-06T04:16:18;13.82;;;8.65;;
24873;SDS011;12945;42.648;23.370;2023-04-06T04:18:44;11.73;;;7.03;;
24873;SDS011;12945;42.648;23.370;2023-04-06T04:21:10;12.95;;;7.63;;
24873;SDS011;12945;42.648;23.370;2023-04-06T04:23:35;14.00;;;8.68;;
24873;SDS011;12945;42.648;23.370;2023-04-06T04:26:01;12.10;;;8.32;;
24873;SDS011;12945;42.648;23.370;2023-04-06T04:28:26;16.23;;;9.45;;
24873;SDS011;12945;42.648;23.370;2023-04-06T04:30:51;13.85;;;8.52;;
24873;SDS011;12945;42.648;23.370;2023-04-06T04:33:17;14.73;;;9.27;;
24873;SDS011;12945;42.648;23.370;2023-04-06T04:35:42;13.95;;;9.05;;
24873;SDS011;12945;42.648;23.370;2023-04-06T04:38:07;12.63;;;8.25;;
24873;SDS011;12945;42.648;23.370;2023-04-06T04:40:32;13.27;;;7.95;;
24873;SDS011;12945;42.648;23.370;2023-04-06T04:42:58;16.45;;;9.38;;
24873;SDS011;12945;42.648;23.370;2023-04-06T04:45:23;15.02;;;9.10;;
24873;SDS011;12945;42.648;23.370;2023-04-06T04:47:48;14.18;;;8.85;;
24873;SDS011;12945;42.648;23.370;2023-04-06T04:50:14;14.98;;;8.75;;
24873;SDS011;12945;42.648;23.370;2023-04-06T04:52:39;16.35;;;9.65;;
24873;SDS011;12945;42.648;23.370;2023-04-06T04:55:05;15.95;;;9.50;;
24873;SDS011;12945;42.648;23.370;2023-04-06T04:57:30;17.00;;;8.25;;
24873;SDS011;12945;42.648;23.370;2023-04-06T04:59:56;13.13;;;8.23;;
24873;SDS011;12945;42.648;23.370;2023-04-06T05:02:22;16.27;;;9.95;;
24873;SDS011;12945;42.648;23.370;2023-04-06T05:04:47;15.90;;;9.65;;
24873;SDS011;12945;42.648;23.370;2023-04-06T05:07:12;16.67;;;10.07;;
24873;SDS011;12945;42.648;23.370;2023-04-06T05:09:38;15.35;;;9.45;;
24873;SDS011;12945;42.648;23.370;2023-04-06T05:12:03;22.80;;;9.88;;
24873;SDS011;12945;42.648;23.370;2023-04-06T05:14:28;15.20;;;9.85;;
24873;SDS011;12945;42.648;23.370;2023-04-06T05:16:54;18.60;;;10.18;;
24873;SDS011;12945;42.648;23.370;2023-04-06T05:19:20;18.58;;;9.95;;
24873;SDS011;12945;42.648;23.370;2023-04-06T05:21:45;17.83;;;10.80;;
24873;SDS011;12945;42.648;23.370;2023-04-06T05:24:11;20.15;;;11.60;;
24873;SDS011;12945;42.648;23.370;2023-04-06T05:26:36;15.88;;;10.02;;
24873;SDS011;12945;42.648;23.370;2023-04-06T05:29:01;20.67;;;10.65;;
24873;SDS011;12945;42.648;23.370;2023-04-06T05:31:27;15.57;;;10.10;;
24873;SDS011;12945;42.648;23.370;2023-04-06T05:33:52;19.60;;;10.77;;
24873;SDS011;12945;42.648;23.370;2023-04-06T05:36:18;23.83;;;11.73;;
24873;SDS011;12945;42.648;23.370;2023-04-06T05:38:43;29.88;;;10.98;;
24873;SDS011;12945;42.648;23.370;2023-04-06T05:41:08;19.92;;;10.50;;
24873;SDS011;12945;42.648;23.370;2023-04-06T05:43:34;18.20;;;11.10;;
24873;SDS011;12945;42.648;23.370;2023-04-06T05:45:59;20.70;;;12.98;;
24873;SDS011;12945;42.648;23.370;2023-04-06T05:48:24;21.15;;;11.32;;
24873;SDS011;12945;42.648;23.370;2023-04-06T05:50:50;21.75;;;12.73;;
24873;SDS011;12945;42.648;23.370;2023-04-06T05:53:15;21.35;;;12.40;;
24873;SDS011;12945;42.648;23.370;2023-04-06T05:55:41;20.90;;;12.30;;
24873;SDS011;12945;42.648;23.370;2023-04-06T05:58:06;28.83;;;12.43;;
24873;SDS011;12945;42.648;23.370;2023-04-06T06:00:31;21.17;;;12.25;;
24873;SDS011;12945;42.648;23.370;2023-04-06T06:02:57;20.58;;;13.05;;
24873;SDS011;12945;42.648;23.370;2023-04-06T06:05:22;22.90;;;13.20;;
24873;SDS011;12945;42.648;23.370;2023-04-06T06:07:47;24.80;;;13.52;;
24873;SDS011;12945;42.648;23.370;2023-04-06T06:10:13;21.98;;;12.27;;
24873;SDS011;12945;42.648;23.370;2023-04-06T06:12:38;20.98;;;11.13;;
24873;SDS011;12945;42.648;23.370;2023-04-06T06:15:04;16.73;;;10.23;;
24873;SDS011;12945;42.648;23.370;2023-04-06T06:17:29;25.70;;;12.95;;
24873;SDS011;12945;42.648;23.370;2023-04-06T06:19:54;20.92;;;12.27;;
24873;SDS011;12945;42.648;23.370;2023-04-06T06:22:20;23.58;;;13.13;;
24873;SDS011;12945;42.648;23.370;2023-04-06T06:24:45;25.55;;;13.93;;
24873;SDS011;12945;42.648;23.370;2023-04-06T06:27:10;23.63;;;13.07;;
24873;SDS011;12945;42.648;23.370;2023-04-06T06:29:36;26.70;;;13.18;;
24873;SDS011;12945;42.648;23.370;2023-04-06T06:32:01;23.67;;;14.15;;
24873;SDS011;12945;42.648;23.370;2023-04-06T06:34:26;23.33;;;14.10;;
24873;SDS011;12945;42.648;23.370;2023-04-06T06:36:52;22.77;;;14.63;;
24873;SDS011;12945;42.648;23.370;2023-04-06T06:39:19;25.95;;;15.52;;
24873;SDS011;12945;42.648;23.370;2023-04-06T06:41:44;25.50;;;13.82;;
24873;SDS011;12945;42.648;23.370;2023-04-06T06:44:10;23.52;;;14.50;;
24873;SDS011;12945;42.648;23.370;2023-04-06T06:46:35;23.95;;;14.45;;
24873;SDS011;12945;42.648;23.370;2023-04-06T06:49:01;21.95;;;12.43;;
24873;SDS011;12945;42.648;23.370;2023-04-06T06:51:26;20.42;;;11.90;;
24873;SDS011;12945;42.648;23.370;2023-04-06T06:53:51;23.42;;;11.98;;
24873;SDS011;12945;42.648;23.370;2023-04-06T06:56:16;20.85;;;13.13;;
24873;SDS011;12945;42.648;23.370;2023-04-06T06:58:42;25.73;;;15.00;;
24873;SDS011;12945;42.648;23.370;2023-04-06T07:01:07;24.08;;;13.27;;
24873;SDS011;12945;42.648;23.370;2023-04-06T07:03:32;19.75;;;12.27;;
24873;SDS011;12945;42.648;23.370;2023-04-06T07:05:58;20.58;;;13.07;;
24873;SDS011;12945;42.648;23.370;2023-04-06T07:08:24;23.67;;;13.32;;
24873;SDS011;12945;42.648;23.370;2023-04-06T07:10:50;21.42;;;12.45;;
24873;SDS011;12945;42.648;23.370;2023-04-06T07:13:17;18.70;;;12.77;;
24873;SDS011;12945;42.648;23.370;2023-04-06T07:15:46;21.70;;;13.60;;
24873;SDS011;12945;42.648;23.370;2023-04-06T07:18:12;26.90;;;12.80;;
24873;SDS011;12945;42.648;23.370;2023-04-06T07:20:37;23.98;;;12.35;;
24873;SDS011;12945;42.648;23.370;2023-04-06T07:23:02;19.85;;;12.50;;
24873;SDS011;12945;42.648;23.370;2023-04-06T07:25:28;23.73;;;11.43;;
24873;SDS011;12945;42.648;23.370;2023-04-06T07:27:53;22.42;;;11.50;;
24873;SDS011;12945;42.648;23.370;2023-04-06T07:30:18;17.80;;;11.32;;
24873;SDS011;12945;42.648;23.370;2023-04-06T07:32:44;13.90;;;9.00;;
24873;SDS011;12945;42.648;23.370;2023-04-06T07:35:10;17.63;;;10.30;;
24873;SDS011;12945;42.648;23.370;2023-04-06T07:37:35;18.70;;;11.20;;
24873;SDS011;12945;42.648;23.370;2023-04-06T07:40:00;16.02;;;10.70;;
24873;SDS011;12945;42.648;23.370;2023-04-06T07:42:26;22.08;;;12.38;;
24873;SDS011;12945;42.648;23.370;2023-04-06T07:44:51;16.75;;;10.98;;
24873;SDS011;12945;42.648;23.370;2023-04-06T07:47:16;15.98;;;10.32;;
24873;SDS011;12945;42.648;23.370;2023-04-06T07:49:42;22.17;;;12.23;;
24873;SDS011;12945;42.648;23.370;2023-04-06T07:52:07;18.20;;;11.90;;
24873;SDS011;12945;42.648;23.370;2023-04-06T07:54:32;19.17;;;11.95;;
24873;SDS011;12945;42.648;23.370;2023-04-06T07:56:58;17.48;;;10.85;;
24873;SDS011;12945;42.648;23.370;2023-04-06T07:59:23;19.02;;;11.75;;
24873;SDS011;12945;42.648;23.370;2023-04-06T08:01:48;17.73;;;11.30;;
24873;SDS011;12945;42.648;23.370;2023-04-06T08:04:14;17.30;;;11.90;;
24873;SDS011;12945;42.648;23.370;2023-04-06T08:06:39;22.55;;;12.73;;
24873;SDS011;12945;42.648;23.370;2023-04-06T08:09:05;21.77;;;12.52;;
24873;SDS011;12945;42.648;23.370;2023-04-06T08:11:31;18.98;;;12.90;;
24873;SDS011;12945;42.648;23.370;2023-04-06T08:13:56;23.58;;;12.27;;
24873;SDS011;12945;42.648;23.370;2023-04-06T08:16:22;22.30;;;12.15;;
24873;SDS011;12945;42.648;23.370;2023-04-06T08:18:47;20.05;;;11.23;;
24873;SDS011;12945;42.648;23.370;2023-04-06T08:21:13;18.92;;;9.85;;
24873;SDS011;12945;42.648;23.370;2023-04-06T08:23:38;17.73;;;10.35;;
24873;SDS011;12945;42.648;23.370;2023-04-06T08:26:04;20.50;;;11.50;;
24873;SDS011;12945;42.648;23.370;2023-04-06T08:28:29;15.90;;;10.88;;
24873;SDS011;12945;42.648;23.370;2023-04-06T08:30:54;15.93;;;10.65;;
24873;SDS011;12945;42.648;23.370;2023-04-06T08:33:20;20.70;;;11.00;;
24873;SDS011;12945;42.648;23.370;2023-04-06T08:35:45;16.60;;;10.40;;
24873;SDS011;12945;42.648;23.370;2023-04-06T08:38:10;15.50;;;9.68;;
24873;SDS011;12945;42.648;23.370;2023-04-06T08:40:36;16.70;;;11.00;;
24873;SDS011;12945;42.648;23.370;2023-04-06T08:43:02;16.85;;;10.18;;
24873;SDS011;12945;42.648;23.370;2023-04-06T08:45:29;16.33;;;10.48;;
24873;SDS011;12945;42.648;23.370;2023-04-06T08:47:54;15.75;;;8.52;;
24873;SDS011;12945;42.648;23.370;2023-04-06T08:50:22;16.77;;;8.43;;
24873;SDS011;12945;42.648;23.370;2023-04-06T08:52:49;13.63;;;8.18;;
24873;SDS011;12945;42.648;23.370;2023-04-06T08:55:15;12.38;;;8.30;;
24873;SDS011;12945;42.648;23.370;2023-04-06T08:57:40;13.68;;;8.68;;
24873;SDS011;12945;42.648;23.370;2023-04-06T09:00:07;13.15;;;8.52;;
24873;SDS011;12945;42.648;23.370;2023-04-06T09:02:32;12.05;;;7.57;;
24873;SDS011;12945;42.648;23.370;2023-04-06T09:04:58;15.10;;;8.32;;
24873;SDS011;12945;42.648;23.370;2023-04-06T09:07:24;13.60;;;8.32;;
24873;SDS011;12945;42.648;23.370;2023-04-06T09:09:49;14.55;;;9.35;;
24873;SDS011;12945;42.648;23.370;2023-04-06T09:12:26;16.38;;;9.10;;
24873;SDS011;12945;42.648;23.370;2023-04-06T09:14:51;14.18;;;8.88;;
24873;SDS011;12945;42.648;23.370;2023-04-06T09:17:24;14.68;;;9.55;;
24873;SDS011;12945;42.648;23.370;2023-04-06T09:19:49;19.02;;;9.05;;
24873;SDS011;12945;42.648;23.370;2023-04-06T09:22:15;20.80;;;10.63;;
24873;SDS011;12945;42.648;23.370;2023-04-06T09:24:44;16.45;;;9.93;;
24873;SDS011;12945;42.648;23.370;2023-04-06T09:27:10;19.15;;;9.95;;
24873;SDS011;12945;42.648;23.370;2023-04-06T09:29:36;14.73;;;9.40;;
24873;SDS011;12945;42.648;23.370;2023-04-06T09:32:04;16.13;;;9.50;;
24873;SDS011;12945;42.648;23.370;2023-04-06T09:34:30;15.48;;;9.50;;
24873;SDS011;12945;42.648;23.370;2023-04-06T09:36:56;13.60;;;9.63;;
24873;SDS011;12945;42.648;23.370;2023-04-06T09:39:21;15.05;;;9.15;;
24873;SDS011;12945;42.648;23.370;2023-04-06T09:41:49;13.40;;;8.45;;
24873;SDS011;12945;42.648;23.370;2023-04-06T09:44:15;16.08;;;9.80;;
24873;SDS011;12945;42.648;23.370;2023-04-06T09:46:41;15.52;;;9.85;;
24873;SDS011;12945;42.648;23.370;2023-04-06T09:49:07;11.77;;;8.50;;
24873;SDS011;12945;42.648;23.370;2023-04-06T09:51:37;16.77;;;8.88;;
24873;SDS011;12945;42.648;23.370;2023-04-06T09:54:03;19.08;;;9.90;;
24873;SDS011;12945;42.648;23.370;2023-04-06T09:59:20;15.30;;;9.10;;
24873;SDS011;12945;42.648;23.370;2023-04-06T10:01:46;14.80;;;8.82;;
24873;SDS011;12945;42.648;23.370;2023-04-06T10:06:38;14.40;;;8.23;;
24873;SDS011;12945;42.648;23.370;2023-04-06T10:09:04;12.25;;;8.65;;
24873;SDS011;12945;42.648;23.370;2023-04-06T10:11:30;12.73;;;8.35;;
24873;SDS011;12945;42.648;23.370;2023-04-06T10:13:56;15.95;;;9.18;;
24873;SDS011;12945;42.648;23.370;2023-04-06T10:16:22;12.40;;;8.50;;
24873;SDS011;12945;42.648;23.370;2023-04-06T10:18:49;13.68;;;8.90;;
24873;SDS011;12945;42.648;23.370;2023-04-06T10:21:19;13.63;;;8.25;;
24873;SDS011;12945;42.648;23.370;2023-04-06T10:23:49;12.93;;;8.60;;
24873;SDS011;12945;42.648;23.370;2023-04-06T10:26:16;15.10;;;8.98;;
24873;SDS011;12945;42.648;23.370;2023-04-06T10:28:42;10.15;;;8.30;;
24873;SDS011;12945;42.648;23.370;2023-04-06T10:31:08;12.43;;;8.00;;
24873;SDS011;12945;42.648;23.370;2023-04-06T10:33:33;11.50;;;7.95;;
24873;SDS011;12945;42.648;23.370;2023-04-06T10:38:40;12.27;;;8.38;;
24873;SDS011;12945;42.648;23.370;2023-04-06T10:41:06;12.70;;;7.88;;
24873;SDS011;12945;42.648;23.370;2023-04-06T10:43:35;10.73;;;7.50;;
24873;SDS011;12945;42.648;23.370;2023-04-06T10:46:01;11.93;;;8.15;;
24873;SDS011;12945;42.648;23.370;2023-04-06T10:48:36;15.73;;;8.75;;
24873;SDS011;12945;42.648;23.370;2023-04-06T10:51:01;12.63;;;8.40;;
24873;SDS011;12945;42.648;23.370;2023-04-06T10:53:32;14.52;;;8.35;;
24873;SDS011;12945;42.648;23.370;2023-04-06T10:55:58;16.30;;;8.70;;
24873;SDS011;12945;42.648;23.370;2023-04-06T10:58:26;13.30;;;8.90;;
24873;SDS011;12945;42.648;23.370;2023-04-06T11:00:52;13.60;;;8.50;;
24873;SDS011;12945;42.648;23.370;2023-04-06T11:03:18;16.00;;;8.77;;
24873;SDS011;12945;42.648;23.370;2023-04-06T11:05:44;13.13;;;9.02;;
24873;SDS011;12945;42.648;23.370;2023-04-06T11:08:10;13.07;;;8.82;;
24873;SDS011;12945;42.648;23.370;2023-04-06T11:10:35;12.07;;;8.57;;
24873;SDS011;12945;42.648;23.370;2023-04-06T11:13:00;11.48;;;8.63;;
24873;SDS011;12945;42.648;23.370;2023-04-06T11:15:33;13.90;;;9.30;;
24873;SDS011;12945;42.648;23.370;2023-04-06T11:17:58;14.55;;;9.75;;
24873;SDS011;12945;42.648;23.370;2023-04-06T11:20:28;16.55;;;8.95;;
24873;SDS011;12945;42.648;23.370;2023-04-06T11:22:53;12.73;;;8.40;;
24873;SDS011;12945;42.648;23.370;2023-04-06T11:25:19;14.00;;;8.40;;
24873;SDS011;12945;42.648;23.370;2023-04-06T11:27:45;12.15;;;8.65;;
24873;SDS011;12945;42.648;23.370;2023-04-06T11:30:11;14.55;;;9.35;;
24873;SDS011;12945;42.648;23.370;2023-04-06T11:32:44;15.90;;;9.95;;
24873;SDS011;12945;42.648;23.370;2023-04-06T11:35:19;16.85;;;9.10;;
24873;SDS011;12945;42.648;23.370;2023-04-06T11:37:45;24.40;;;15.77;;
24873;SDS011;12945;42.648;23.370;2023-04-06T11:40:10;13.13;;;9.35;;
24873;SDS011;12945;42.648;23.370;2023-04-06T11:42:36;12.32;;;8.75;;
24873;SDS011;12945;42.648;23.370;2023-04-06T11:45:01;16.70;;;10.00;;
24873;SDS011;12945;42.648;23.370;2023-04-06T11:47:34;12.15;;;8.63;;
24873;SDS011;12945;42.648;23.370;2023-04-06T11:50:09;14.80;;;9.25;;
24873;SDS011;12945;42.648;23.370;2023-04-06T11:52:35;13.65;;;8.75;;
24873;SDS011;12945;42.648;23.370;2023-04-06T11:55:10;14.00;;;9.75;;
24873;SDS011;12945;42.648;23.370;2023-04-06T11:57:35;14.45;;;8.93;;
24873;SDS011;12945;42.648;23.370;2023-04-06T12:00:01;14.75;;;9.32;;
24873;SDS011;12945;42.648;23.370;2023-04-06T12:02:26;12.85;;;9.00;;
24873;SDS011;12945;42.648;23.370;2023-04-06T12:04:51;10.88;;;8.07;;
24873;SDS011;12945;42.648;23.370;2023-04-06T12:07:17;14.65;;;8.88;;
24873;SDS011;12945;42.648;23.370;2023-04-06T12:09:42;15.95;;;9.50;;
24873;SDS011;12945;42.648;23.370;2023-04-06T12:12:08;13.57;;;9.82;;
24873;SDS011;12945;42.648;23.370;2023-04-06T12:14:33;15.15;;;9.93;;
24873;SDS011;12945;42.648;23.370;2023-04-06T12:16:58;13.68;;;9.30;;
24873;SDS011;12945;42.648;23.370;2023-04-06T12:19:24;13.88;;;8.63;;
24873;SDS011;12945;42.648;23.370;2023-04-06T12:21:51;17.27;;;8.82;;
24873;SDS011;12945;42.648;23.370;2023-04-06T12:24:17;14.43;;;9.30;;
24873;SDS011;12945;42.648;23.370;2023-04-06T12:26:42;15.05;;;10.10;;
24873;SDS011;12945;42.648;23.370;2023-04-06T12:29:08;18.00;;;10.73;;
24873;SDS011;12945;42.648;23.370;2023-04-06T12:31:36;14.65;;;9.90;;
24873;SDS011;12945;42.648;23.370;2023-04-06T12:34:03;15.07;;;9.85;;
24873;SDS011;12945;42.648;23.370;2023-04-06T12:36:29;13.50;;;9.50;;
24873;SDS011;12945;42.648;23.370;2023-04-06T12:38:54;17.30;;;9.57;;
24873;SDS011;12945;42.648;23.370;2023-04-06T12:41:20;15.10;;;9.27;;
24873;SDS011;12945;42.648;23.370;2023-04-06T12:43:46;16.20;;;8.68;;
24873;SDS011;12945;42.648;23.370;2023-04-06T12:46:11;14.20;;;8.65;;
24873;SDS011;12945;42.648;23.370;2023-04-06T12:48:37;14.07;;;8.43;;
24873;SDS011;12945;42.648;23.370;2023-04-06T12:51:03;16.92;;;8.70;;
24873;SDS011;12945;42.648;23.370;2023-04-06T12:53:28;11.40;;;7.97;;
24873;SDS011;12945;42.648;23.370;2023-04-06T12:55:55;12.95;;;8.88;;
24873;SDS011;12945;42.648;23.370;2023-04-06T12:58:20;15.35;;;9.15;;
24873;SDS011;12945;42.648;23.370;2023-04-06T13:00:47;11.55;;;8.38;;
24873;SDS011;12945;42.648;23.370;2023-04-06T13:03:12;15.02;;;8.90;;
24873;SDS011;12945;42.648;23.370;2023-04-06T13:05:44;13.30;;;9.02;;
24873;SDS011;12945;42.648;23.370;2023-04-06T13:08:10;15.73;;;9.57;;
24873;SDS011;12945;42.648;23.370;2023-04-06T13:10:35;16.77;;;9.57;;
24873;SDS011;12945;42.648;23.370;2023-04-06T13:13:01;18.20;;;10.35;;
24873;SDS011;12945;42.648;23.370;2023-04-06T13:15:26;14.20;;;9.60;;
24873;SDS011;12945;42.648;23.370;2023-04-06T13:17:51;17.48;;;10.40;;
24873;SDS011;12945;42.648;23.370;2023-04-06T13:20:17;17.33;;;9.98;;
24873;SDS011;12945;42.648;23.370;2023-04-06T13:22:42;14.48;;;9.85;;
24873;SDS011;12945;42.648;23.370;2023-04-06T13:25:07;18.75;;;9.27;;
24873;SDS011;12945;42.648;23.370;2023-04-06T13:27:33;13.23;;;9.20;;
24873;SDS011;12945;42.648;23.370;2023-04-06T13:30:00;16.23;;;9.77;;
24873;SDS011;12945;42.648;23.370;2023-04-06T13:32:26;14.65;;;10.32;;
24873;SDS011;12945;42.648;23.370;2023-04-06T13:34:54;16.40;;;9.70;;
24873;SDS011;12945;42.648;23.370;2023-04-06T13:37:19;19.15;;;10.45;;
24873;SDS011;12945;42.648;23.370;2023-04-06T13:39:44;17.00;;;9.77;;
24873;SDS011;12945;42.648;23.370;2023-04-06T13:42:10;20.63;;;10.82;;
24873;SDS011;12945;42.648;23.370;2023-04-06T13:44:35;15.88;;;9.20;;
24873;SDS011;12945;42.648;23.370;2023-04-06T13:47:00;16.30;;;9.20;;
24873;SDS011;12945;42.648;23.370;2023-04-06T13:49:26;14.90;;;9.10;;
24873;SDS011;12945;42.648;23.370;2023-04-06T13:51:51;14.38;;;9.10;;
24873;SDS011;12945;42.648;23.370;2023-04-06T13:54:17;17.45;;;9.55;;
24873;SDS011;12945;42.648;23.370;2023-04-06T13:56:42;22.33;;;11.07;;
24873;SDS011;12945;42.648;23.370;2023-04-06T13:59:07;16.33;;;9.57;;
24873;SDS011;12945;42.648;23.370;2023-04-06T14:01:33;17.25;;;8.88;;
24873;SDS011;12945;42.648;23.370;2023-04-06T14:03:59;17.30;;;8.48;;
24873;SDS011;12945;42.648;23.370;2023-04-06T14:06:24;13.73;;;8.57;;
24873;SDS011;12945;42.648;23.370;2023-04-06T14:08:50;11.52;;;8.38;;
24873;SDS011;12945;42.648;23.370;2023-04-06T14:11:16;13.18;;;8.23;;
24873;SDS011;12945;42.648;23.370;2023-04-06T14:13:42;12.27;;;8.05;;
24873;SDS011;12945;42.648;23.370;2023-04-06T14:16:07;15.32;;;8.38;;
24873;SDS011;12945;42.648;23.370;2023-04-06T14:18:33;16.40;;;8.70;;